Time;durP1;ratioP1;P1;durP2;ratioP2;P2;SDS_P1;SDS_P2;PMS_P1;PMS_P2;Temp;Humidity;BMP_temperature;BMP_pressure;BME280_temperature;BME280_humidity;BME280_pressure;Samples;Min_cycle;Max_cycle;Signal;HPM_P1;HPM_P2
2023/03/14 00:02:18;;;;;;;8.45;3.25;;;;;;;-146.27;93.82;48307.97;5090901;28;20035;-68
2023/03/14 00:04:44;;;;;;;15.63;1.92;;;;;;;-146.27;93.68;48331.88;5091439;28;20360;-66
2023/03/14 00:07:11;;;;;;;7.90;1.42;;;;;;;-146.27;93.30;48335.84;5085022;28;20048;-68
2023/03/14 00:09:37;;;;;;;8.85;1.63;;;;;;;-146.27;93.09;48349.78;5092692;28;20020;-67
2023/03/14 00:12:03;;;;;;;15.75;2.33;;;;;;;-146.27;93.54;48339.84;5084051;28;20031;-67
2023/03/14 00:14:29;;;;;;;13.20;1.70;;;;;;;-146.27;93.92;48325.91;5088225;28;22132;-67
2023/03/14 00:16:54;;;;;;;19.17;2.47;;;;;;;-146.27;93.92;48345.81;5090962;28;20055;-66
2023/03/14 00:19:20;;;;;;;8.40;1.40;;;;;;;-146.27;94.34;48361.75;5090675;28;20040;-67
2023/03/14 00:21:46;;;;;;;11.48;1.45;;;;;;;-146.27;94.47;48359.75;5091503;28;20024;-68
2023/03/14 00:24:12;;;;;;;9.90;1.50;;;;;;;-146.27;95.31;48292.03;5093508;28;20375;-66
2023/03/14 00:26:37;;;;;;;13.18;1.95;;;;;;;-146.27;95.00;48311.94;5092044;28;20024;-67
2023/03/14 00:29:03;;;;;;;8.30;1.95;;;;;;;-146.27;95.79;48333.88;5090890;28;20062;-66
2023/03/14 00:31:28;;;;;;;11.10;1.60;;;;;;;-146.27;96.59;48343.81;5088198;28;20106;-67
2023/03/14 00:33:54;;;;;;;16.35;1.88;;;;;;;-146.27;96.63;48351.78;5084355;28;20032;-68
2023/03/14 00:36:20;;;;;;;24.20;2.45;;;;;;;-146.27;97.96;48377.69;5089990;28;20031;-68
2023/03/14 00:38:47;;;;;;;11.68;2.03;;;;;;;-146.27;98.66;48355.78;5091385;28;20027;-69
2023/03/14 00:41:18;;;;;;;17.58;2.55;;;;;;;-146.27;98.95;48331.88;5088808;28;20077;-68
2023/03/14 00:43:43;;;;;;;18.58;2.70;;;;;;;-146.27;100.00;48367.72;5084810;28;20021;-68
2023/03/14 00:46:09;;;;;;;10.88;2.88;;;;;;;-146.27;100.00;48339.84;5085268;28;20032;-68
2023/03/14 00:48:35;;;;;;;13.20;2.22;;;;;;;-146.27;100.00;48363.75;5088758;28;20029;-67
2023/03/14 00:51:02;;;;;;;14.32;1.92;;;;;;;-146.27;100.00;48335.84;5082482;28;20040;-67
2023/03/14 00:53:27;;;;;;;17.83;2.55;;;;;;;-146.27;100.00;48315.94;5090776;28;20088;-67
2023/03/14 00:55:53;;;;;;;14.35;2.35;;;;;;;-146.27;100.00;48355.78;5092222;28;20016;-68
2023/03/14 00:58:18;;;;;;;18.30;2.75;;;;;;;-146.27;100.00;48355.78;5085906;28;20043;-67
2023/03/14 01:00:45;;;;;;;19.55;3.17;;;;;;;-146.27;100.00;48355.78;5091319;28;20031;-68
2023/03/14 01:03:11;;;;;;;15.13;2.63;;;;;;;-146.27;100.00;48371.69;5087578;28;20035;-67
2023/03/14 01:05:37;;;;;;;20.00;3.15;;;;;;;-146.27;100.00;48341.81;5084335;28;20395;-66
2023/03/14 01:08:03;;;;;;;16.75;2.47;;;;;;;-146.27;100.00;48351.78;5081744;28;20111;-68
2023/03/14 01:10:29;;;;;;;16.67;2.55;;;;;;;-146.27;100.00;48367.72;5083877;28;20482;-67
2023/03/14 01:12:54;;;;;;;12.50;1.50;;;;;;;-146.27;100.00;48323.91;5087609;28;20028;-67
2023/03/14 01:15:19;;;;;;;17.98;2.17;;;;;;;-146.27;100.00;48325.91;5092147;28;20035;-66
2023/03/14 01:17:45;;;;;;;15.45;2.38;;;;;;;-146.27;100.00;48349.78;5089709;28;20024;-67
2023/03/14 01:20:13;;;;;;;15.82;2.03;;;;;;;-146.27;100.00;48347.81;5090679;28;20039;-68
2023/03/14 01:22:39;;;;;;;16.13;2.63;;;;;;;-146.27;100.00;48351.78;5091334;28;20024;-66
2023/03/14 01:25:10;;;;;;;14.52;2.95;;;;;;;-146.27;100.00;48379.66;5091442;28;20495;-68
2023/03/14 01:27:35;;;;;;;14.85;1.95;;;;;;;-146.27;100.00;48323.91;5070323;28;20265;-67
2023/03/14 01:30:02;;;;;;;15.15;2.28;;;;;;;-146.27;100.00;48363.75;5091661;28;20131;-67
2023/03/14 01:32:27;;;;;;;21.02;2.80;;;;;;;-146.27;100.00;48345.81;5091746;28;20380;-67
2023/03/14 01:34:53;;;;;;;20.42;2.55;;;;;;;-146.27;100.00;48337.84;5092252;28;20028;-67
2023/03/14 01:37:18;;;;;;;18.50;2.40;;;;;;;-146.27;100.00;48375.69;5091150;28;20063;-68
2023/03/14 01:39:43;;;;;;;11.68;2.17;;;;;;;-146.27;100.00;48313.94;5087824;28;20028;-69
2023/03/14 01:42:09;;;;;;;17.02;2.45;;;;;;;-146.27;100.00;48349.78;5085185;28;20450;-68
2023/03/14 01:44:57;;;;;;;9.43;1.90;;;;;;;-146.27;100.00;48347.81;5091918;28;20023;-68
2023/03/14 01:47:23;;;;;;;12.20;2.03;;;;;;;-146.27;100.00;48343.81;5081061;28;20023;-67
2023/03/14 01:50:01;;;;;;;13.23;3.55;;;;;;;-146.27;100.00;48325.91;5088704;28;20624;-67
2023/03/14 01:52:42;;;;;;;11.52;2.20;;;;;;;-146.27;100.00;48357.75;5090680;28;20468;-67
2023/03/14 01:55:13;;;;;;;9.10;1.92;;;;;;;-146.27;100.00;48317.94;5088324;28;20020;-67
2023/03/14 01:57:44;;;;;;;15.48;2.25;;;;;;;-146.27;100.00;48349.78;5080351;28;20471;-66
2023/03/14 02:00:15;;;;;;;12.50;2.17;;;;;;;-146.27;100.00;48335.84;5082417;28;20461;-69
2023/03/14 02:02:47;;;;;;;19.55;2.50;;;;;;;-146.27;100.00;48343.81;5090698;28;20115;-67
2023/03/14 02:05:15;;;;;;;12.63;1.90;;;;;;;-146.27;100.00;48371.69;5087410;28;20040;-68
2023/03/14 02:07:47;;;;;;;14.73;2.97;;;;;;;-146.27;100.00;48359.75;5085943;28;20050;-67
2023/03/14 02:10:14;;;;;;;11.05;2.45;;;;;;;-146.27;100.00;48331.88;5089389;28;20047;-67
2023/03/14 02:12:39;;;;;;;13.60;2.10;;;;;;;-146.27;100.00;48327.88;5091145;28;20024;-68
2023/03/14 02:15:05;;;;;;;13.20;1.90;;;;;;;-146.27;100.00;48331.88;5090412;28;20448;-68
2023/03/14 02:17:31;;;;;;;12.52;2.13;;;;;;;-146.27;100.00;48379.66;5091329;28;20108;-67
2023/03/14 02:20:20;;;;;;;19.73;1.88;;;;;;;-146.27;100.00;48345.81;5079931;28;20096;-67
2023/03/14 02:22:46;;;;;;;12.93;1.88;;;;;;;-146.27;100.00;48353.78;5081691;28;20024;-67
2023/03/14 02:25:12;;;;;;;17.67;2.53;;;;;;;-146.27;100.00;48331.88;5081256;28;20016;-67
2023/03/14 02:27:38;;;;;;;11.57;1.75;;;;;;;-146.27;100.00;48347.81;5078053;28;20021;-67
2023/03/14 02:30:21;;;;;;;9.27;1.63;;;;;;;-146.27;100.00;48329.88;5074110;28;20028;-68
2023/03/14 02:32:51;;;;;;;7.35;1.42;;;;;;;-146.27;100.00;48343.81;5090688;28;20027;-68
2023/03/14 02:35:23;;;;;;;16.10;1.85;;;;;;;-146.27;100.00;48383.66;5089644;28;20100;-68
2023/03/14 02:37:52;;;;;;;13.20;1.92;;;;;;;-146.27;100.00;48363.75;5084129;28;20348;-67
2023/03/14 02:40:18;;;;;;;16.33;2.17;;;;;;;-146.27;100.00;48367.72;5083895;28;20032;-68
2023/03/14 02:42:44;;;;;;;12.65;2.60;;;;;;;-146.27;100.00;48379.66;5081221;28;20028;-68
2023/03/14 02:45:09;;;;;;;14.35;2.20;;;;;;;-146.27;100.00;48375.69;5084887;28;20524;-67
2023/03/14 02:47:41;;;;;;;11.70;2.13;;;;;;;-146.27;100.00;48369.72;5084339;28;20488;-68
2023/03/14 02:50:12;;;;;;;9.25;1.75;;;;;;;-146.27;100.00;48349.78;5087633;28;20028;-67
2023/03/14 02:52:38;;;;;;;19.25;2.13;;;;;;;-146.27;100.00;48335.84;5092255;28;20471;-67
2023/03/14 02:55:04;;;;;;;9.60;1.65;;;;;;;-146.27;100.00;48353.78;5093286;28;20027;-68
2023/03/14 02:57:29;;;;;;;14.10;2.30;;;;;;;-146.27;100.00;48327.88;5083884;28;20120;-67
2023/03/14 02:59:59;;;;;;;15.38;1.85;;;;;;;-146.27;100.00;48343.81;5093338;28;20099;-67
2023/03/14 03:02:25;;;;;;;15.93;2.17;;;;;;;-146.27;100.00;48375.69;5082686;28;20464;-67
2023/03/14 03:04:50;;;;;;;14.48;1.75;;;;;;;-146.27;100.00;48355.78;5092897;28;20024;-69
2023/03/14 03:07:15;;;;;;;9.60;2.25;;;;;;;-146.27;100.00;48335.84;5084949;28;20050;-68
2023/03/14 03:09:41;;;;;;;14.25;2.55;;;;;;;-146.27;100.00;48353.78;5087875;28;20114;-67
2023/03/14 03:12:06;;;;;;;9.15;1.92;;;;;;;-146.27;100.00;48357.75;5078858;28;20488;-69
2023/03/14 03:14:32;;;;;;;9.20;1.75;;;;;;;-146.27;100.00;48357.75;5083980;28;20052;-69
2023/03/14 03:16:57;;;;;;;12.57;2.15;;;;;;;-146.27;100.00;48339.84;5089494;28;20064;-67
2023/03/14 03:19:22;;;;;;;10.80;2.60;;;;;;;-146.27;100.00;48395.59;5085188;28;20028;-68
2023/03/14 03:21:48;;;;;;;13.75;2.00;;;;;;;-146.27;100.00;48335.84;5093714;28;20031;-68
2023/03/14 03:24:13;;;;;;;10.27;2.70;;;;;;;-146.27;100.00;48333.88;5086255;28;20032;-68
2023/03/14 03:26:39;;;;;;;7.97;1.80;;;;;;;-146.27;100.00;48359.75;5088011;28;20037;-68
2023/03/14 03:29:04;;;;;;;15.20;2.00;;;;;;;-146.27;100.00;48315.94;5094266;28;20036;-67
2023/03/14 03:31:30;;;;;;;10.63;2.08;;;;;;;-146.27;100.00;48373.69;5092477;28;20091;-68
2023/03/14 03:33:56;;;;;;;9.23;2.22;;;;;;;-146.27;100.00;48369.72;5094171;28;20448;-67
2023/03/14 03:36:25;;;;;;;12.10;1.83;;;;;;;-146.27;100.00;48343.81;5092293;28;20027;-67
2023/03/14 03:38:51;;;;;;;16.73;2.35;;;;;;;-146.27;100.00;48327.88;5085648;28;20025;-70
2023/03/14 03:41:16;;;;;;;9.98;1.85;;;;;;;-146.27;100.00;48355.78;5087826;28;20483;-68
2023/03/14 03:43:42;;;;;;;14.82;2.58;;;;;;;-146.27;100.00;48339.84;5074219;28;20115;-68
2023/03/14 03:46:08;;;;;;;14.43;2.95;;;;;;;-146.27;100.00;48333.88;5085679;28;20031;-68
2023/03/14 03:48:34;;;;;;;16.73;2.40;;;;;;;-146.27;100.00;48335.84;5093267;28;20070;-67
2023/03/14 03:51:00;;;;;;;11.75;2.28;;;;;;;-146.27;100.00;48367.72;5091674;28;20414;-68
2023/03/14 03:53:25;;;;;;;12.88;2.25;;;;;;;-146.27;100.00;48323.91;5091966;28;20036;-68
2023/03/14 03:55:51;;;;;;;12.02;2.40;;;;;;;-146.27;100.00;48343.81;5092020;28;20106;-69
2023/03/14 03:58:16;;;;;;;10.60;2.83;;;;;;;-146.27;100.00;48333.88;5092234;28;20452;-66
2023/03/14 04:00:41;;;;;;;11.95;2.22;;;;;;;-146.27;100.00;48359.75;5093833;28;20729;-68
2023/03/14 04:03:07;;;;;;;11.48;2.95;;;;;;;-146.27;100.00;48359.75;5093392;28;20077;-67
2023/03/14 04:05:34;;;;;;;11.50;2.10;;;;;;;-146.27;100.00;48369.72;5086090;28;20028;-67
2023/03/14 04:07:59;;;;;;;17.40;3.08;;;;;;;-146.27;100.00;48337.84;5093354;28;20020;-68
2023/03/14 04:10:25;;;;;;;12.68;2.40;;;;;;;-146.27;100.00;48357.75;5089809;28;20613;-67
2023/03/14 04:12:50;;;;;;;11.82;2.33;;;;;;;-146.27;100.00;48363.75;5091006;28;20024;-67
2023/03/14 04:15:15;;;;;;;11.30;2.30;;;;;;;-146.27;100.00;48383.66;5093318;28;20106;-69
2023/03/14 04:17:41;;;;;;;11.98;2.65;;;;;;;-146.27;100.00;48383.66;5087363;28;20035;-69
2023/03/14 04:20:10;;;;;;;15.73;2.80;;;;;;;-146.27;100.00;48339.84;5092452;28;20028;-68
2023/03/14 04:22:36;;;;;;;11.95;2.20;;;;;;;-146.27;100.00;48311.94;5091873;28;20030;-68
2023/03/14 04:25:03;;;;;;;15.10;2.55;;;;;;;-146.27;100.00;48367.72;5089897;28;20024;-68
2023/03/14 04:27:28;;;;;;;13.98;2.47;;;;;;;-146.27;100.00;48349.78;5093112;28;20043;-68
2023/03/14 04:29:54;;;;;;;12.50;2.47;;;;;;;-146.27;100.00;48341.81;5080284;28;20306;-67
2023/03/14 04:32:19;;;;;;;17.08;3.17;;;;;;;-146.27;100.00;48395.59;5091092;28;20036;-67
2023/03/14 04:34:45;;;;;;;11.82;2.15;;;;;;;-146.27;100.00;48343.81;5088091;28;20043;-68
2023/03/14 04:37:10;;;;;;;16.52;2.60;;;;;;;-146.27;100.00;48373.69;5092118;28;20052;-67
2023/03/14 04:39:36;;;;;;;15.38;2.72;;;;;;;-146.27;100.00;48355.78;5088526;28;20047;-68
2023/03/14 04:42:02;;;;;;;9.20;2.50;;;;;;;-146.27;100.00;48345.81;5092390;28;20096;-68
2023/03/14 04:44:27;;;;;;;14.35;2.70;;;;;;;-146.27;100.00;48393.63;5083030;28;20031;-67
2023/03/14 04:46:52;;;;;;;13.95;3.15;;;;;;;-146.27;100.00;48359.75;5091658;28;20024;-67
2023/03/14 04:49:18;;;;;;;20.92;2.78;;;;;;;-146.27;100.00;48349.78;5091748;28;20021;-69
2023/03/14 04:51:43;;;;;;;13.07;2.83;;;;;;;-146.27;100.00;48367.72;5091807;28;20020;-67
2023/03/14 04:54:09;;;;;;;9.63;2.85;;;;;;;-146.27;100.00;48369.72;5090440;28;20058;-68
2023/03/14 04:56:34;;;;;;;16.35;2.97;;;;;;;-146.27;100.00;48403.56;5091387;28;20503;-69
2023/03/14 04:59:00;;;;;;;16.85;2.58;;;;;;;-146.27;100.00;48383.66;5084444;28;20055;-68
2023/03/14 05:01:25;;;;;;;6.30;2.00;;;;;;;-146.27;100.00;48375.69;5086985;28;20024;-69
2023/03/14 05:03:50;;;;;;;7.30;2.45;;;;;;;-146.27;100.00;48379.66;5089438;28;20023;-69
2023/03/14 05:06:16;;;;;;;11.98;2.35;;;;;;;-146.27;100.00;48383.66;5090448;28;20048;-69
2023/03/14 05:08:41;;;;;;;13.80;2.50;;;;;;;-146.27;100.00;48411.53;5085240;28;20024;-68
2023/03/14 05:11:10;;;;;;;10.68;3.38;;;;;;;-146.27;100.00;48403.56;5091350;28;20016;-69
2023/03/14 05:13:35;;;;;;;9.20;3.10;;;;;;;-146.27;100.00;48365.72;5082685;28;20016;-68
2023/03/14 05:16:09;;;;;;;11.15;3.20;;;;;;;-146.27;100.00;48367.72;5081834;28;20371;-69
2023/03/14 05:18:34;;;;;;;18.58;3.33;;;;;;;-146.27;100.00;48387.63;5086959;28;20099;-69
2023/03/14 05:21:00;;;;;;;11.15;3.30;;;;;;;-146.27;100.00;48351.78;5091644;28;20165;-70
2023/03/14 05:23:25;;;;;;;11.40;3.45;;;;;;;-146.27;100.00;48367.72;5090449;28;20490;-68
2023/03/14 05:25:51;;;;;;;12.73;3.55;;;;;;;-146.27;100.00;48355.78;5084781;28;20051;-68
2023/03/14 05:28:16;;;;;;;18.75;4.22;;;;;;;-146.27;100.00;48383.66;5091249;28;20024;-69
2023/03/14 05:30:41;;;;;;;11.73;3.20;;;;;;;-146.27;100.00;48357.75;5077228;28;20032;-69
2023/03/14 05:33:07;;;;;;;16.48;2.42;;;;;;;-146.27;100.00;48371.69;5090529;28;20024;-69
2023/03/14 05:35:32;;;;;;;7.60;1.67;;;;;;;-146.27;100.00;48355.78;5087596;28;20028;-70
2023/03/14 05:37:58;;;;;;;7.47;1.20;;;;;;;-146.27;100.00;48385.66;5076826;28;20480;-69
2023/03/14 05:40:23;;;;;;;8.43;2.22;;;;;;;-146.27;100.00;48375.69;5080886;28;20460;-69
2023/03/14 05:42:48;;;;;;;12.90;1.27;;;;;;;-146.27;100.00;48423.50;5076925;28;20021;-70
2023/03/14 05:45:14;;;;;;;10.23;1.42;;;;;;;-146.27;100.00;48389.63;5087355;28;20151;-69
2023/03/14 05:47:39;;;;;;;13.52;2.38;;;;;;;-146.27;100.00;48403.56;5091766;28;20378;-68
2023/03/14 05:50:05;;;;;;;11.60;1.48;;;;;;;-146.27;100.00;48385.66;5090135;28;20032;-69
2023/03/14 05:52:30;;;;;;;14.45;1.45;;;;;;;-146.27;100.00;48367.72;5085543;28;20515;-69
2023/03/14 05:54:56;;;;;;;7.70;0.80;;;;;;;-146.27;100.00;48391.63;5086713;28;20020;-70
2023/03/14 05:57:21;;;;;;;5.20;0.75;;;;;;;-146.27;100.00;48391.63;5081679;28;20060;-69
2023/03/14 05:59:46;;;;;;;9.55;1.35;;;;;;;-146.27;100.00;48379.66;5086181;28;20016;-69
2023/03/14 06:02:11;;;;;;;7.82;1.50;;;;;;;-146.27;100.00;48395.59;5084575;28;20499;-68
2023/03/14 06:04:37;;;;;;;11.10;1.35;;;;;;;-146.27;100.00;48411.53;5096330;28;20526;-68
2023/03/14 06:07:02;;;;;;;6.68;1.00;;;;;;;-146.27;100.00;48411.53;5081268;28;20423;-71
2023/03/14 06:09:28;;;;;;;19.27;1.75;;;;;;;-146.27;100.00;48381.66;5088694;28;20078;-68
2023/03/14 06:11:53;;;;;;;12.40;1.30;;;;;;;-146.27;100.00;48403.56;5086313;28;20472;-69
2023/03/14 06:14:18;;;;;;;7.88;1.10;;;;;;;-146.27;100.00;48385.66;5084097;28;20023;-69
2023/03/14 06:16:44;;;;;;;9.30;0.95;;;;;;;-146.27;100.00;48343.81;5089300;28;20051;-68
2023/03/14 06:19:10;;;;;;;11.45;1.08;;;;;;;-146.27;100.00;48355.78;5084228;28;20070;-68
2023/03/14 06:21:35;;;;;;;6.22;0.70;;;;;;;-146.27;100.00;48383.66;5080550;28;20074;-71
2023/03/14 06:24:01;;;;;;;11.10;1.02;;;;;;;-146.27;100.00;48399.59;5087032;28;20483;-72
2023/03/14 06:26:26;;;;;;;6.63;1.00;;;;;;;-146.27;100.00;48421.50;5089939;28;20454;-69
2023/03/14 06:28:53;;;;;;;6.25;1.08;;;;;;;-146.27;100.00;48399.59;5081560;28;20017;-71
2023/03/14 06:31:18;;;;;;;4.78;0.60;;;;;;;-146.27;100.00;48401.56;5090922;28;20028;-70
2023/03/14 06:33:43;;;;;;;6.22;0.55;;;;;;;-146.27;100.00;48411.53;5094567;28;20039;-70
2023/03/14 06:36:09;;;;;;;6.57;1.15;;;;;;;-146.27;100.00;48351.78;5085530;28;20414;-71
2023/03/14 06:38:34;;;;;;;5.53;0.60;;;;;;;-146.27;100.00;48413.53;5079614;28;20024;-70
2023/03/14 06:41:05;;;;;;;6.57;1.58;;;;;;;-146.27;100.00;48379.66;5089114;28;20542;-69
2023/03/14 06:43:30;;;;;;;9.70;1.58;;;;;;;-146.27;100.00;48403.56;5087229;28;20032;-68
2023/03/14 06:45:55;;;;;;;5.25;0.93;;;;;;;-146.27;100.00;48405.56;5086155;28;20070;-69
2023/03/14 06:48:21;;;;;;;18.42;1.77;;;;;;;-146.27;100.00;48397.59;5086592;28;20380;-69
2023/03/14 06:50:48;;;;;;;19.38;2.83;;;;;;;-146.27;100.00;48399.59;5085741;28;20027;-69
2023/03/14 06:53:13;;;;;;;6.05;0.82;;;;;;;-146.27;100.00;48383.66;5081660;28;20078;-69
2023/03/14 06:55:38;;;;;;;7.50;1.08;;;;;;;-146.27;100.00;48405.56;5080420;28;20028;-69
2023/03/14 06:58:04;;;;;;;6.95;1.13;;;;;;;-146.27;100.00;48403.56;5085041;28;20023;-68
2023/03/14 07:00:30;;;;;;;6.10;0.80;;;;;;;-146.27;100.00;48375.69;5082741;28;20027;-68
2023/03/14 07:02:55;;;;;;;23.85;1.38;;;;;;;-146.27;100.00;48379.66;5084938;28;20081;-69
2023/03/14 07:05:20;;;;;;;10.65;1.63;;;;;;;-146.27;100.00;48407.56;5082181;28;20098;-69
2023/03/14 07:07:46;;;;;;;12.95;1.20;;;;;;;-146.27;100.00;48411.53;5086210;28;20447;-69
2023/03/14 07:10:11;;;;;;;16.52;1.92;;;;;;;-146.27;100.00;48393.63;5086483;28;20032;-71
2023/03/14 07:12:37;;;;;;;10.50;1.33;;;;;;;-146.27;100.00;48355.78;5079916;28;20016;-69
2023/03/14 07:15:02;;;;;;;16.75;1.70;;;;;;;-146.27;100.00;48397.59;5094623;28;20028;-69
2023/03/14 07:17:28;;;;;;;20.00;1.77;;;;;;;-146.27;100.00;48375.69;5085760;28;20020;-69
2023/03/14 07:19:53;;;;;;;16.40;1.50;;;;;;;-146.27;100.00;48393.63;5088962;28;20024;-70
2023/03/14 07:22:18;;;;;;;21.65;2.97;;;;;;;-146.27;100.00;48407.56;5090345;28;20027;-68
2023/03/14 07:24:44;;;;;;;11.75;1.40;;;;;;;-146.27;100.00;48379.66;5078640;28;20460;-69
2023/03/14 07:27:09;;;;;;;13.68;2.45;;;;;;;-146.27;100.00;48383.66;5084423;28;20404;-69
2023/03/14 07:29:34;;;;;;;7.68;1.15;;;;;;;-146.27;100.00;48387.63;5103976;28;20031;-70
2023/03/14 07:32:00;;;;;;;6.68;1.00;;;;;;;-146.27;100.00;48399.59;5096551;28;20081;-70
2023/03/14 07:34:25;;;;;;;9.75;0.90;;;;;;;-146.27;100.00;48415.53;5101943;28;20091;-70
2023/03/14 07:36:50;;;;;;;5.70;0.90;;;;;;;-146.27;100.00;48375.69;5088891;28;20055;-70
2023/03/14 07:39:16;;;;;;;6.80;0.70;;;;;;;-146.27;100.00;48389.63;5089364;28;20020;-71
2023/03/14 07:41:41;;;;;;;5.30;0.73;;;;;;;-146.27;100.00;48387.63;5096526;28;20383;-68
2023/03/14 07:44:07;;;;;;;5.10;0.95;;;;;;;-146.27;100.00;48397.59;5088387;28;20132;-68
2023/03/14 07:46:32;;;;;;;11.43;1.67;;;;;;;-146.27;100.00;48391.63;5092277;28;20034;-68
2023/03/14 07:48:58;;;;;;;7.63;1.13;;;;;;;-146.27;100.00;48395.59;5098490;28;20417;-68
2023/03/14 07:51:23;;;;;;;11.20;1.65;;;;;;;-146.27;100.00;48337.84;5089057;28;20434;-69
2023/03/14 07:53:48;;;;;;;17.10;1.35;;;;;;;-146.27;100.00;48359.75;5094439;28;20023;-69
2023/03/14 07:56:14;;;;;;;14.50;1.27;;;;;;;-146.27;100.00;48419.50;5094345;28;20083;-70
2023/03/14 07:58:39;;;;;;;12.88;1.75;;;;;;;-146.27;100.00;48387.63;5082980;28;20016;-69
2023/03/14 08:01:05;;;;;;;9.85;1.63;;;;;;;-146.27;100.00;48401.56;5107374;28;20501;-70
2023/03/14 08:03:30;;;;;;;11.68;2.25;;;;;;;-146.27;100.00;48363.75;5093572;28;20016;-69
2023/03/14 08:05:55;;;;;;;9.43;1.13;;;;;;;-146.27;100.00;48439.41;5086595;28;20039;-70
2023/03/14 08:08:21;;;;;;;7.25;1.30;;;;;;;-146.27;100.00;48403.56;5108532;27;20020;-69
2023/03/14 08:10:46;;;;;;;13.93;1.42;;;;;;;-146.27;100.00;48391.63;5087309;28;20380;-69
2023/03/14 08:13:12;;;;;;;9.43;1.15;;;;;;;-146.27;100.00;48417.50;5090680;28;20028;-69
2023/03/14 08:15:37;;;;;;;14.70;1.05;;;;;;;-146.27;100.00;48419.50;5089126;28;20030;-67
2023/03/14 08:18:04;;;;;;;12.55;2.90;;;;;;;-146.27;100.00;48409.53;5093881;28;20030;-70
2023/03/14 08:20:30;;;;;;;12.45;1.65;;;;;;;-146.27;100.00;48369.72;5091851;28;20023;-70
2023/03/14 08:23:01;;;;;;;8.25;1.30;;;;;;;-146.27;100.00;48375.69;5080518;28;20039;-69
2023/03/14 08:25:27;;;;;;;14.13;1.90;;;;;;;-146.27;100.00;48415.53;5089311;28;20035;-70
2023/03/14 08:27:53;;;;;;;15.38;1.48;;;;;;;-146.27;100.00;48429.47;5098371;28;20027;-71
2023/03/14 08:30:20;;;;;;;10.02;1.10;;;;;;;-146.27;100.00;48407.56;5093799;28;20070;-70
2023/03/14 08:32:46;;;;;;;3.80;0.70;;;;;;;-146.27;100.00;48403.56;5092574;28;20055;-70
2023/03/14 08:35:12;;;;;;;6.40;0.95;;;;;;;-146.27;100.00;48427.47;5093617;28;20467;-70
2023/03/14 08:37:37;;;;;;;5.28;1.05;;;;;;;-146.27;100.00;48393.63;5086931;28;20051;-69
2023/03/14 08:40:08;;;;;;;11.10;0.90;;;;;;;-146.27;100.00;48393.63;5096764;28;20114;-71
2023/03/14 08:42:33;;;;;;;9.45;1.52;;;;;;;-146.27;100.00;48391.63;5100838;28;20023;-69
2023/03/14 08:44:59;;;;;;;6.82;1.13;;;;;;;-146.27;100.00;48403.56;5088668;28;20528;-69
2023/03/14 08:47:25;;;;;;;5.20;1.27;;;;;;;-146.27;100.00;48419.50;5093267;28;20503;-70
2023/03/14 08:49:50;;;;;;;4.82;1.60;;;;;;;-146.27;100.00;48411.53;5093573;28;20016;-70
2023/03/14 08:52:16;;;;;;;7.07;1.10;;;;;;;-146.27;100.00;48363.75;5086331;28;20408;-70
2023/03/14 08:54:43;;;;;;;8.65;1.25;;;;;;;-146.27;100.00;48401.56;5081356;28;20029;-69
2023/03/14 08:57:09;;;;;;;17.35;1.70;;;;;;;-146.27;100.00;48403.56;5096008;28;20035;-69
2023/03/14 08:59:34;;;;;;;11.27;1.60;;;;;;;-146.27;100.00;48409.53;5090067;28;20027;-69
2023/03/14 09:02:03;;;;;;;13.05;1.50;;;;;;;-146.27;100.00;48371.69;5094258;28;20066;-70
2023/03/14 09:04:29;;;;;;;13.68;1.63;;;;;;;-146.27;100.00;48375.69;5073878;28;20051;-68
2023/03/14 09:06:54;;;;;;;10.07;1.52;;;;;;;-146.27;100.00;48391.63;5101449;28;20146;-69
2023/03/14 09:09:22;;;;;;;19.55;2.05;;;;;;;-146.27;100.00;48399.59;5085737;28;20041;-69
2023/03/14 09:11:47;;;;;;;21.85;1.70;;;;;;;-146.27;100.00;48419.50;5085560;28;20031;-69
2023/03/14 09:14:13;;;;;;;16.42;2.25;;;;;;;-146.27;100.00;48385.66;5081432;28;20032;-70
2023/03/14 09:16:39;;;;;;;24.48;2.47;;;;;;;-146.27;100.00;48403.56;5086571;28;20483;-69
2023/03/14 09:19:05;;;;;;;11.63;1.67;;;;;;;-146.27;100.00;48423.50;5093884;28;20035;-69
2023/03/14 09:21:35;;;;;;;21.98;1.92;;;;;;;-146.27;100.00;48401.56;5091420;28;20027;-69
2023/03/14 09:24:00;;;;;;;19.35;2.67;;;;;;;-146.27;100.00;48375.69;5098477;28;20372;-68
2023/03/14 09:26:26;;;;;;;13.70;2.80;;;;;;;-146.27;100.00;48385.66;5102212;28;20066;-68
2023/03/14 09:28:51;;;;;;;16.08;2.15;;;;;;;-146.27;100.00;48397.59;5100403;28;20081;-70
2023/03/14 09:31:17;;;;;;;21.25;2.20;;;;;;;-146.27;100.00;48371.69;5091389;28;20391;-69
2023/03/14 09:33:42;;;;;;;17.58;2.20;;;;;;;-146.27;100.00;48433.44;5095903;28;20031;-69
2023/03/14 09:36:08;;;;;;;14.02;2.10;;;;;;;-146.27;100.00;48439.41;5082447;28;20032;-69
2023/03/14 09:38:34;;;;;;;17.65;2.00;;;;;;;-146.27;100.00;48373.69;5092236;28;20028;-69
2023/03/14 09:41:02;;;;;;;27.60;2.55;;;;;;;-146.27;100.00;48421.50;5098047;28;20491;-70
2023/03/14 09:43:35;;;;;;;15.57;2.47;;;;;;;-146.27;100.00;48381.66;5101148;28;20033;-69
2023/03/14 09:46:02;;;;;;;26.73;2.97;;;;;;;-146.27;100.00;48419.50;5091561;28;20038;-69
2023/03/14 09:48:31;;;;;;;36.78;3.05;;;;;;;-146.27;100.00;48389.63;5081087;28;20058;-71
2023/03/14 09:50:59;;;;;;;19.20;2.38;;;;;;;-146.27;100.00;48423.50;5081889;28;20483;-68
2023/03/14 09:53:31;;;;;;;30.13;2.90;;;;;;;-146.27;100.00;48439.41;5091296;28;20032;-70
2023/03/14 09:55:58;;;;;;;29.35;3.03;;;;;;;-146.27;100.00;48355.78;5083873;28;20107;-69
2023/03/14 09:58:24;;;;;;;20.45;2.00;;;;;;;-146.27;100.00;48385.66;5108714;28;20034;-70
2023/03/14 10:00:55;;;;;;;20.75;2.45;;;;;;;-146.27;100.00;48395.59;5099003;28;20050;-70
2023/03/14 10:03:33;;;;;;;22.85;2.55;;;;;;;-146.27;100.00;48431.47;5093280;28;20442;-70
2023/03/14 10:05:58;;;;;;;15.05;2.28;;;;;;;-146.27;100.00;48407.56;5086675;28;20050;-68
2023/03/14 10:08:24;;;;;;;21.15;2.75;;;;;;;-146.27;100.00;48389.63;5108432;28;20028;-69
2023/03/14 10:10:50;;;;;;;24.90;2.10;;;;;;;-146.27;100.00;48397.59;5089880;28;20024;-69
2023/03/14 10:13:24;;;;;;;14.40;2.33;;;;;;;-146.27;100.00;48389.63;5077449;28;20039;-70
2023/03/14 10:16:06;;;;;;;15.60;1.90;;;;;;;-146.27;100.00;48399.59;5100602;28;20034;-71
2023/03/14 10:18:34;;;;;;;23.75;3.40;;;;;;;-146.27;100.00;48387.63;5102596;28;20383;-70
2023/03/14 10:21:20;;;;;;;13.02;2.90;;;;;;;-146.27;100.00;48395.59;5099617;28;20442;-69
2023/03/14 10:23:45;;;;;;;17.58;3.75;;;;;;;-146.27;100.00;48405.56;5092694;28;20089;-70
2023/03/14 10:26:16;;;;;;;18.63;2.33;;;;;;;-146.27;100.00;48397.59;5110407;28;20027;-69
2023/03/14 10:28:43;;;;;;;22.13;3.10;;;;;;;-146.27;100.00;48383.66;5105935;28;20103;-68
2023/03/14 10:31:09;;;;;;;20.02;2.90;;;;;;;-146.27;98.86;48371.69;5088827;27;20059;-70
2023/03/14 10:33:36;;;;;;;25.52;2.72;;;;;;;-146.27;94.90;48393.63;5085293;28;20079;-69
2023/03/14 10:36:14;;;;;;;19.30;2.95;;;;;;;-146.27;92.33;48371.69;5095993;28;20023;-69
2023/03/14 10:38:40;;;;;;;14.95;2.53;;;;;;;-146.27;92.32;48391.63;5096194;28;20428;-70
2023/03/14 10:41:26;;;;;;;25.00;2.65;;;;;;;-146.27;92.60;48421.50;5089959;28;20060;-70
2023/03/14 10:43:58;;;;;;;19.85;2.50;;;;;;;-146.27;91.29;48393.63;5080158;28;20031;-71
2023/03/14 10:46:26;;;;;;;23.65;3.10;;;;;;;-146.27;89.98;48411.53;5096804;28;20032;-70
2023/03/14 10:48:52;;;;;;;22.27;2.70;;;;;;;-146.27;88.31;48389.63;5094199;28;20054;-70
2023/03/14 10:51:29;;;;;;;25.38;2.40;;;;;;;-146.27;87.34;48371.69;5092049;28;20028;-69
2023/03/14 10:54:14;;;;;;;13.00;2.33;;;;;;;-146.27;89.22;48381.66;5089685;28;20106;-70
2023/03/14 10:56:39;;;;;;;22.58;2.95;;;;;;;-146.27;83.31;48371.69;5103777;28;20051;-70
2023/03/14 10:59:14;;;;;;;18.48;2.47;;;;;;;-146.27;76.39;48355.78;5089681;28;20055;-69
2023/03/14 11:02:03;;;;;;;15.75;2.13;;;;;;;-146.27;70.34;48383.66;5094626;28;20024;-69
2023/03/14 11:04:44;;;;;;;13.77;2.15;;;;;;;-146.27;69.40;48369.72;5091411;28;20104;-69